San Diego, CA (92101)

11:34 AM PDT on September 30, 2016 (GMT -0700)
Columbia District | | Change Station

Elev 23 ft 32.72 °N, 117.17 °W | Updated 24 seconds ago

Scattered Clouds
Scattered Clouds
77.7 °F
Feels Like 79 °F
N
0.2
Wind Variable Wind from SSW
Gusts 2.5 mph

Today
High -- | Low -- °F
--% Chance of Precip.
Yesterday
High -- | Low -- °F
Precip. -- in
Pressure 30.04 in
Visibility 10.0 miles
Clouds Few 600 ft
Few 1000 ft
Scattered Clouds 4500 ft
Heat Index 79 °F
Dew Point 54 °F
Humidity 44%
Rainfall 0.00 in
Snow Depth Not available.
6:42 AM 6:33 PM
Waning Crescent, 0% visible
METAR KSAN 301751Z 30006KT 10SM FEW006 FEW010 SCT045 27/18 A3004 RMK AO2 SLP173 FU FEW010 T02670178 10267 20217 50003
Pressure 30.04 in
Visibility 10.0 miles
Clouds Few 600 ft
Few 1000 ft
Scattered Clouds 4500 ft
Heat Index 79 °F
Dew Point 54 °F
Humidity 44%
Rainfall 0.00 in
Snow Depth Not available.
6:42 AM 6:33 PM
Waning Crescent, 0% visible
METAR KSAN 301751Z 30006KT 10SM FEW006 FEW010 SCT045 27/18 A3004 RMK AO2 SLP173 FU FEW010 T02670178 10267 20217 50003

10-Day Weather Forecast

Almanac

Astronomy

Sep. 30, 2016 Rise Set
Actual Time
Civil Twilight
Nautical Twilight
Astronomical Twilight
Moon
Length of Visible Light
Length of Day
Tomorrow will be .
, % of the Moon is Illuminated

Today's Extremes

State Highs State Lows

Community

WunderPhotos

Upload Photos

1,942,753 photos uploaded!

WunderBlog® & News

Nearby

Air Quality

  Air Quality AQ Index Pollutant
Not available.

Snow Depth

Station Depth Elevation

Earthquake Activity

City Distance Mag. Time & Date
Minimum magnitude displayed is 2.5.

Coastal Water Temperatures

Place Temperature

Stations

Nearby Weather Stations

Station Location Temp. Windchill Dew Point Humidity Wind Precip. Elev Updated Type
                   

Watches & Warnings

There are currently no watches in effect.